sensor_id;sensor_type;location;lat;lon;timestamp;temperature;humidity
14119;DHT22;7138;49.246;9.100;2022-10-31T00:00:40;10.90;99.90
14119;DHT22;7138;49.246;9.100;2022-10-31T00:03:06;10.90;99.90
14119;DHT22;7138;49.246;9.100;2022-10-31T00:05:32;10.80;99.90
14119;DHT22;7138;49.246;9.100;2022-10-31T00:07:58;10.80;99.90
14119;DHT22;7138;49.246;9.100;2022-10-31T00:10:24;10.70;99.90
14119;DHT22;7138;49.246;9.100;2022-10-31T00:12:51;10.70;99.90
14119;DHT22;7138;49.246;9.100;2022-10-31T00:15:17;10.70;99.90
14119;DHT22;7138;49.246;9.100;2022-10-31T00:17:43;10.80;99.90
14119;DHT22;7138;49.246;9.100;2022-10-31T00:20:09;10.80;99.90
14119;DHT22;7138;49.246;9.100;2022-10-31T00:22:35;10.80;99.90
14119;DHT22;7138;49.246;9.100;2022-10-31T00:25:01;10.80;99.90
14119;DHT22;7138;49.246;9.100;2022-10-31T00:27:27;10.80;99.90
14119;DHT22;7138;49.246;9.100;2022-10-31T00:29:54;10.80;99.90
14119;DHT22;7138;49.246;9.100;2022-10-31T00:32:20;10.80;99.90
14119;DHT22;7138;49.246;9.100;2022-10-31T00:34:46;10.90;99.90
14119;DHT22;7138;49.246;9.100;2022-10-31T00:37:12;10.90;99.90
14119;DHT22;7138;49.246;9.100;2022-10-31T00:39:38;10.80;99.90
14119;DHT22;7138;49.246;9.100;2022-10-31T00:42:04;10.70;99.90
14119;DHT22;7138;49.246;9.100;2022-10-31T00:44:30;10.80;99.90
14119;DHT22;7138;49.246;9.100;2022-10-31T00:46:57;10.70;99.90
14119;DHT22;7138;49.246;9.100;2022-10-31T00:49:23;10.80;99.90
14119;DHT22;7138;49.246;9.100;2022-10-31T00:51:48;10.80;99.90
14119;DHT22;7138;49.246;9.100;2022-10-31T00:54:14;10.70;99.90
14119;DHT22;7138;49.246;9.100;2022-10-31T00:56:40;10.70;99.90
14119;DHT22;7138;49.246;9.100;2022-10-31T00:59:06;10.70;99.90
14119;DHT22;7138;49.246;9.100;2022-10-31T01:01:32;10.70;99.90
14119;DHT22;7138;49.246;9.100;2022-10-31T01:03:59;10.70;99.90
14119;DHT22;7138;49.246;9.100;2022-10-31T01:06:25;10.60;99.90
14119;DHT22;7138;49.246;9.100;2022-10-31T01:08:51;10.50;99.90
14119;DHT22;7138;49.246;9.100;2022-10-31T01:11:19;10.50;99.90
14119;DHT22;7138;49.246;9.100;2022-10-31T01:13:46;10.50;99.90
14119;DHT22;7138;49.246;9.100;2022-10-31T01:16:17;10.50;99.90
14119;DHT22;7138;49.246;9.100;2022-10-31T01:18:44;10.60;99.90
14119;DHT22;7138;49.246;9.100;2022-10-31T01:21:13;10.50;99.90
14119;DHT22;7138;49.246;9.100;2022-10-31T01:23:41;10.40;99.90
14119;DHT22;7138;49.246;9.100;2022-10-31T01:26:09;10.40;99.90
14119;DHT22;7138;49.246;9.100;2022-10-31T01:28:39;10.40;99.90
14119;DHT22;7138;49.246;9.100;2022-10-31T01:31:10;10.40;99.90
14119;DHT22;7138;49.246;9.100;2022-10-31T01:33:37;10.30;99.90
14119;DHT22;7138;49.246;9.100;2022-10-31T01:36:13;10.20;99.90
14119;DHT22;7138;49.246;9.100;2022-10-31T01:38:41;10.20;99.90
14119;DHT22;7138;49.246;9.100;2022-10-31T01:41:08;10.20;99.90
14119;DHT22;7138;49.246;9.100;2022-10-31T01:43:43;10.20;99.90
14119;DHT22;7138;49.246;9.100;2022-10-31T01:46:11;10.10;99.90
14119;DHT22;7138;49.246;9.100;2022-10-31T01:48:37;10.00;99.90
14119;DHT22;7138;49.246;9.100;2022-10-31T01:51:06;10.10;99.90
14119;DHT22;7138;49.246;9.100;2022-10-31T01:53:39;10.00;99.90
14119;DHT22;7138;49.246;9.100;2022-10-31T01:56:06;10.10;99.90
14119;DHT22;7138;49.246;9.100;2022-10-31T01:58:34;10.10;99.90
14119;DHT22;7138;49.246;9.100;2022-10-31T02:01:01;10.10;99.90
14119;DHT22;7138;49.246;9.100;2022-10-31T02:03:29;10.10;99.90
14119;DHT22;7138;49.246;9.100;2022-10-31T02:05:57;10.00;99.90
14119;DHT22;7138;49.246;9.100;2022-10-31T02:08:27;10.00;99.90
14119;DHT22;7138;49.246;9.100;2022-10-31T02:10:57;10.00;99.90
14119;DHT22;7138;49.246;9.100;2022-10-31T02:13:25;10.00;99.90
14119;DHT22;7138;49.246;9.100;2022-10-31T02:15:55;10.10;99.90
14119;DHT22;7138;49.246;9.100;2022-10-31T02:18:24;10.10;99.90
14119;DHT22;7138;49.246;9.100;2022-10-31T02:21:03;10.00;99.90
14119;DHT22;7138;49.246;9.100;2022-10-31T02:24:10;10.00;99.90
14119;DHT22;7138;49.246;9.100;2022-10-31T02:27:09;10.00;99.90
14119;DHT22;7138;49.246;9.100;2022-10-31T02:30:03;10.00;99.90
14119;DHT22;7138;49.246;9.100;2022-10-31T02:32:54;9.90;99.90
14119;DHT22;7138;49.246;9.100;2022-10-31T02:35:43;9.90;99.90
14119;DHT22;7138;49.246;9.100;2022-10-31T02:38:38;9.90;99.90
14119;DHT22;7138;49.246;9.100;2022-10-31T02:41:19;9.80;99.90
14119;DHT22;7138;49.246;9.100;2022-10-31T02:44:02;9.80;99.90
14119;DHT22;7138;49.246;9.100;2022-10-31T02:46:38;9.70;99.90
14119;DHT22;7138;49.246;9.100;2022-10-31T02:49:16;9.70;99.90
14119;DHT22;7138;49.246;9.100;2022-10-31T02:51:48;9.80;99.90
14119;DHT22;7138;49.246;9.100;2022-10-31T02:54:18;9.80;99.90
14119;DHT22;7138;49.246;9.100;2022-10-31T02:56:47;9.80;99.90
14119;DHT22;7138;49.246;9.100;2022-10-31T02:59:15;9.80;99.90
14119;DHT22;7138;49.246;9.100;2022-10-31T03:01:53;9.80;99.90
14119;DHT22;7138;49.246;9.100;2022-10-31T03:04:53;9.80;99.90
14119;DHT22;7138;49.246;9.100;2022-10-31T03:07:38;9.80;99.90
14119;DHT22;7138;49.246;9.100;2022-10-31T03:10:16;9.90;99.90
14119;DHT22;7138;49.246;9.100;2022-10-31T03:12:59;9.80;99.90
14119;DHT22;7138;49.246;9.100;2022-10-31T03:15:34;9.80;99.90
14119;DHT22;7138;49.246;9.100;2022-10-31T03:18:05;9.80;99.90
14119;DHT22;7138;49.246;9.100;2022-10-31T03:20:38;9.80;99.90
14119;DHT22;7138;49.246;9.100;2022-10-31T03:23:08;9.80;99.90
14119;DHT22;7138;49.246;9.100;2022-10-31T03:25:39;9.80;99.90
14119;DHT22;7138;49.246;9.100;2022-10-31T03:28:09;9.90;99.90
14119;DHT22;7138;49.246;9.100;2022-10-31T03:30:37;9.90;99.90
14119;DHT22;7138;49.246;9.100;2022-10-31T03:33:09;9.80;99.90
14119;DHT22;7138;49.246;9.100;2022-10-31T03:35:42;9.90;99.90
14119;DHT22;7138;49.246;9.100;2022-10-31T03:38:13;9.80;99.90
14119;DHT22;7138;49.246;9.100;2022-10-31T03:40:41;9.80;99.90
14119;DHT22;7138;49.246;9.100;2022-10-31T03:43:15;9.70;99.90
14119;DHT22;7138;49.246;9.100;2022-10-31T03:45:45;9.70;99.90
14119;DHT22;7138;49.246;9.100;2022-10-31T03:48:12;9.70;99.90
14119;DHT22;7138;49.246;9.100;2022-10-31T03:50:47;9.60;99.90
14119;DHT22;7138;49.246;9.100;2022-10-31T03:53:24;9.50;99.90
14119;DHT22;7138;49.246;9.100;2022-10-31T03:55:59;9.40;99.90
14119;DHT22;7138;49.246;9.100;2022-10-31T03:58:35;9.40;99.90
14119;DHT22;7138;49.246;9.100;2022-10-31T04:01:06;9.40;99.90
14119;DHT22;7138;49.246;9.100;2022-10-31T04:03:38;9.40;99.90
14119;DHT22;7138;49.246;9.100;2022-10-31T04:06:08;9.40;99.90
14119;DHT22;7138;49.246;9.100;2022-10-31T04:08:39;9.40;99.90
14119;DHT22;7138;49.246;9.100;2022-10-31T04:11:11;9.40;99.90
14119;DHT22;7138;49.246;9.100;2022-10-31T04:13:40;9.40;99.90
14119;DHT22;7138;49.246;9.100;2022-10-31T04:16:09;9.30;99.90
14119;DHT22;7138;49.246;9.100;2022-10-31T04:18:36;9.40;99.90
14119;DHT22;7138;49.246;9.100;2022-10-31T04:21:04;9.30;99.90
14119;DHT22;7138;49.246;9.100;2022-10-31T04:23:33;9.30;99.90
14119;DHT22;7138;49.246;9.100;2022-10-31T04:26:00;9.30;99.90
14119;DHT22;7138;49.246;9.100;2022-10-31T04:28:27;9.20;99.90
14119;DHT22;7138;49.246;9.100;2022-10-31T04:30:53;9.20;99.90
14119;DHT22;7138;49.246;9.100;2022-10-31T04:33:19;9.10;99.90
14119;DHT22;7138;49.246;9.100;2022-10-31T04:35:45;9.10;99.90
14119;DHT22;7138;49.246;9.100;2022-10-31T04:38:13;9.00;99.90
14119;DHT22;7138;49.246;9.100;2022-10-31T04:40:39;9.00;99.90
14119;DHT22;7138;49.246;9.100;2022-10-31T04:43:04;9.10;99.90
14119;DHT22;7138;49.246;9.100;2022-10-31T04:45:30;9.00;99.90
14119;DHT22;7138;49.246;9.100;2022-10-31T04:47:56;9.00;99.90
14119;DHT22;7138;49.246;9.100;2022-10-31T04:50:22;9.00;99.90
14119;DHT22;7138;49.246;9.100;2022-10-31T04:52:48;9.00;99.90
14119;DHT22;7138;49.246;9.100;2022-10-31T04:55:15;8.90;99.90
14119;DHT22;7138;49.246;9.100;2022-10-31T04:57:42;8.90;99.90
14119;DHT22;7138;49.246;9.100;2022-10-31T05:00:09;8.90;99.90
14119;DHT22;7138;49.246;9.100;2022-10-31T05:02:43;8.80;99.90
14119;DHT22;7138;49.246;9.100;2022-10-31T05:05:10;8.80;99.90
14119;DHT22;7138;49.246;9.100;2022-10-31T05:07:38;8.80;99.90
14119;DHT22;7138;49.246;9.100;2022-10-31T05:10:06;8.80;99.90
14119;DHT22;7138;49.246;9.100;2022-10-31T05:12:34;8.80;99.90
14119;DHT22;7138;49.246;9.100;2022-10-31T05:14:59;8.70;99.90
14119;DHT22;7138;49.246;9.100;2022-10-31T05:17:25;8.60;99.90
14119;DHT22;7138;49.246;9.100;2022-10-31T05:19:51;8.60;99.90
14119;DHT22;7138;49.246;9.100;2022-10-31T05:22:17;8.60;99.90
14119;DHT22;7138;49.246;9.100;2022-10-31T05:24:43;8.50;99.90
14119;DHT22;7138;49.246;9.100;2022-10-31T05:27:08;8.60;99.90
14119;DHT22;7138;49.246;9.100;2022-10-31T05:29:36;8.60;99.90
14119;DHT22;7138;49.246;9.100;2022-10-31T05:32:02;8.60;99.90
14119;DHT22;7138;49.246;9.100;2022-10-31T05:34:28;8.50;99.90
14119;DHT22;7138;49.246;9.100;2022-10-31T05:36:53;8.60;99.90
14119;DHT22;7138;49.246;9.100;2022-10-31T05:39:19;8.50;99.90
14119;DHT22;7138;49.246;9.100;2022-10-31T05:41:45;8.50;99.90
14119;DHT22;7138;49.246;9.100;2022-10-31T05:44:11;8.40;99.90
14119;DHT22;7138;49.246;9.100;2022-10-31T05:46:38;8.30;99.90
14119;DHT22;7138;49.246;9.100;2022-10-31T05:49:04;8.30;99.90
14119;DHT22;7138;49.246;9.100;2022-10-31T05:51:30;8.20;99.90
14119;DHT22;7138;49.246;9.100;2022-10-31T05:53:55;8.30;99.90
14119;DHT22;7138;49.246;9.100;2022-10-31T05:56:21;8.30;99.90
14119;DHT22;7138;49.246;9.100;2022-10-31T05:58:47;8.40;99.90
14119;DHT22;7138;49.246;9.100;2022-10-31T06:01:13;8.40;99.90
14119;DHT22;7138;49.246;9.100;2022-10-31T06:03:40;8.40;99.90
14119;DHT22;7138;49.246;9.100;2022-10-31T06:06:06;8.50;99.90
14119;DHT22;7138;49.246;9.100;2022-10-31T06:08:32;8.50;99.90
14119;DHT22;7138;49.246;9.100;2022-10-31T06:10:58;8.60;99.90
14119;DHT22;7138;49.246;9.100;2022-10-31T06:13:24;8.60;99.90
14119;DHT22;7138;49.246;9.100;2022-10-31T06:15:50;8.60;99.90
14119;DHT22;7138;49.246;9.100;2022-10-31T06:18:16;8.70;99.90
14119;DHT22;7138;49.246;9.100;2022-10-31T06:20:43;8.70;99.90
14119;DHT22;7138;49.246;9.100;2022-10-31T06:23:09;8.70;99.90
14119;DHT22;7138;49.246;9.100;2022-10-31T06:25:35;8.70;99.90
14119;DHT22;7138;49.246;9.100;2022-10-31T06:28:01;8.70;99.90
14119;DHT22;7138;49.246;9.100;2022-10-31T06:30:27;8.70;99.90
14119;DHT22;7138;49.246;9.100;2022-10-31T06:32:53;8.70;99.90
14119;DHT22;7138;49.246;9.100;2022-10-31T06:35:19;8.60;99.90
14119;DHT22;7138;49.246;9.100;2022-10-31T06:37:52;8.60;99.90
14119;DHT22;7138;49.246;9.100;2022-10-31T06:40:18;8.70;99.90
14119;DHT22;7138;49.246;9.100;2022-10-31T06:42:44;8.80;99.90
14119;DHT22;7138;49.246;9.100;2022-10-31T06:45:09;8.80;99.90
14119;DHT22;7138;49.246;9.100;2022-10-31T06:47:35;8.90;99.90
14119;DHT22;7138;49.246;9.100;2022-10-31T06:50:01;8.90;99.90
14119;DHT22;7138;49.246;9.100;2022-10-31T06:52:27;8.90;99.90
14119;DHT22;7138;49.246;9.100;2022-10-31T06:54:54;8.90;99.90
14119;DHT22;7138;49.246;9.100;2022-10-31T06:57:20;8.90;99.90
14119;DHT22;7138;49.246;9.100;2022-10-31T06:59:46;9.00;99.90
14119;DHT22;7138;49.246;9.100;2022-10-31T07:02:12;9.00;99.90
14119;DHT22;7138;49.246;9.100;2022-10-31T07:04:38;9.00;99.90
14119;DHT22;7138;49.246;9.100;2022-10-31T07:07:04;9.00;99.90
14119;DHT22;7138;49.246;9.100;2022-10-31T07:09:30;9.10;99.90
14119;DHT22;7138;49.246;9.100;2022-10-31T07:11:57;9.10;99.90
14119;DHT22;7138;49.246;9.100;2022-10-31T07:14:23;9.10;99.90
14119;DHT22;7138;49.246;9.100;2022-10-31T07:16:49;9.30;99.90
14119;DHT22;7138;49.246;9.100;2022-10-31T07:19:16;9.40;99.90
14119;DHT22;7138;49.246;9.100;2022-10-31T07:21:41;9.60;99.90
14119;DHT22;7138;49.246;9.100;2022-10-31T07:24:07;9.80;99.90
14119;DHT22;7138;49.246;9.100;2022-10-31T07:26:33;10.00;99.90
14119;DHT22;7138;49.246;9.100;2022-10-31T07:29:00;10.20;99.90
14119;DHT22;7138;49.246;9.100;2022-10-31T07:31:26;10.40;99.90
14119;DHT22;7138;49.246;9.100;2022-10-31T07:33:52;10.70;99.90
14119;DHT22;7138;49.246;9.100;2022-10-31T07:36:18;10.90;99.90
14119;DHT22;7138;49.246;9.100;2022-10-31T07:38:44;11.00;99.90
14119;DHT22;7138;49.246;9.100;2022-10-31T07:41:09;11.20;99.90
14119;DHT22;7138;49.246;9.100;2022-10-31T07:43:35;11.20;99.90
14119;DHT22;7138;49.246;9.100;2022-10-31T07:46:02;11.10;99.90
14119;DHT22;7138;49.246;9.100;2022-10-31T07:48:28;11.10;99.90
14119;DHT22;7138;49.246;9.100;2022-10-31T07:50:55;11.30;99.90
14119;DHT22;7138;49.246;9.100;2022-10-31T07:53:21;11.40;99.90
14119;DHT22;7138;49.246;9.100;2022-10-31T07:55:46;11.50;99.90
14119;DHT22;7138;49.246;9.100;2022-10-31T07:58:13;11.50;99.90
14119;DHT22;7138;49.246;9.100;2022-10-31T08:00:41;11.50;99.90
14119;DHT22;7138;49.246;9.100;2022-10-31T08:03:10;11.60;99.90
14119;DHT22;7138;49.246;9.100;2022-10-31T08:05:38;11.70;99.90
14119;DHT22;7138;49.246;9.100;2022-10-31T08:08:06;11.80;99.90
14119;DHT22;7138;49.246;9.100;2022-10-31T08:10:34;11.80;99.90
14119;DHT22;7138;49.246;9.100;2022-10-31T08:13:02;11.80;99.90
14119;DHT22;7138;49.246;9.100;2022-10-31T08:15:29;11.80;99.90
14119;DHT22;7138;49.246;9.100;2022-10-31T08:17:55;11.70;99.90
14119;DHT22;7138;49.246;9.100;2022-10-31T08:20:23;11.80;99.90
14119;DHT22;7138;49.246;9.100;2022-10-31T08:22:55;11.80;99.90
14119;DHT22;7138;49.246;9.100;2022-10-31T08:25:22;11.90;99.90
14119;DHT22;7138;49.246;9.100;2022-10-31T08:27:49;12.10;99.90
14119;DHT22;7138;49.246;9.100;2022-10-31T08:30:16;12.10;99.90
14119;DHT22;7138;49.246;9.100;2022-10-31T08:32:42;12.30;99.90
14119;DHT22;7138;49.246;9.100;2022-10-31T08:35:08;12.50;99.90
14119;DHT22;7138;49.246;9.100;2022-10-31T08:37:35;12.60;99.90
14119;DHT22;7138;49.246;9.100;2022-10-31T08:40:01;12.60;99.90
14119;DHT22;7138;49.246;9.100;2022-10-31T08:42:27;12.70;99.90
14119;DHT22;7138;49.246;9.100;2022-10-31T08:44:52;13.00;99.90
14119;DHT22;7138;49.246;9.100;2022-10-31T08:47:18;13.10;99.90
14119;DHT22;7138;49.246;9.100;2022-10-31T08:49:44;13.30;99.90
14119;DHT22;7138;49.246;9.100;2022-10-31T08:52:10;13.40;99.90
14119;DHT22;7138;49.246;9.100;2022-10-31T08:54:37;13.50;99.90
14119;DHT22;7138;49.246;9.100;2022-10-31T08:57:03;13.50;99.90
14119;DHT22;7138;49.246;9.100;2022-10-31T08:59:29;13.40;99.90
14119;DHT22;7138;49.246;9.100;2022-10-31T09:01:55;13.40;99.90
14119;DHT22;7138;49.246;9.100;2022-10-31T09:04:20;13.30;99.90
14119;DHT22;7138;49.246;9.100;2022-10-31T09:06:46;13.40;99.90
14119;DHT22;7138;49.246;9.100;2022-10-31T09:09:12;13.50;99.90
14119;DHT22;7138;49.246;9.100;2022-10-31T09:11:39;13.30;99.90
14119;DHT22;7138;49.246;9.100;2022-10-31T09:14:05;13.20;99.90
14119;DHT22;7138;49.246;9.100;2022-10-31T09:16:31;13.50;99.90
14119;DHT22;7138;49.246;9.100;2022-10-31T09:18:57;13.60;99.90
14119;DHT22;7138;49.246;9.100;2022-10-31T09:21:23;13.70;99.90
14119;DHT22;7138;49.246;9.100;2022-10-31T09:23:48;13.70;99.90
14119;DHT22;7138;49.246;9.100;2022-10-31T09:26:14;13.80;99.90
14119;DHT22;7138;49.246;9.100;2022-10-31T09:28:41;14.00;99.90
14119;DHT22;7138;49.246;9.100;2022-10-31T09:31:07;13.90;99.90
14119;DHT22;7138;49.246;9.100;2022-10-31T09:33:33;14.10;99.90
14119;DHT22;7138;49.246;9.100;2022-10-31T09:35:59;14.20;99.90
14119;DHT22;7138;49.246;9.100;2022-10-31T09:38:25;14.30;99.90
14119;DHT22;7138;49.246;9.100;2022-10-31T09:40:55;14.30;99.90
14119;DHT22;7138;49.246;9.100;2022-10-31T09:43:35;14.40;99.90
14119;DHT22;7138;49.246;9.100;2022-10-31T09:46:15;14.40;99.90
14119;DHT22;7138;49.246;9.100;2022-10-31T09:48:59;14.60;99.90
14119;DHT22;7138;49.246;9.100;2022-10-31T09:51:48;14.40;99.90
14119;DHT22;7138;49.246;9.100;2022-10-31T09:54:21;14.70;99.90
14119;DHT22;7138;49.246;9.100;2022-10-31T09:56:58;15.00;99.90
14119;DHT22;7138;49.246;9.100;2022-10-31T09:59:29;14.80;99.90
14119;DHT22;7138;49.246;9.100;2022-10-31T10:02:02;15.00;99.90
14119;DHT22;7138;49.246;9.100;2022-10-31T10:04:36;14.80;99.90
14119;DHT22;7138;49.246;9.100;2022-10-31T10:07:12;15.00;99.90
14119;DHT22;7138;49.246;9.100;2022-10-31T10:09:43;15.10;99.90
14119;DHT22;7138;49.246;9.100;2022-10-31T10:12:16;15.30;99.90
14119;DHT22;7138;49.246;9.100;2022-10-31T10:14:57;15.50;99.90
14119;DHT22;7138;49.246;9.100;2022-10-31T10:17:39;15.60;99.90
14119;DHT22;7138;49.246;9.100;2022-10-31T10:20:22;15.40;99.90
14119;DHT22;7138;49.246;9.100;2022-10-31T10:22:57;15.50;99.90
14119;DHT22;7138;49.246;9.100;2022-10-31T10:25:37;15.70;99.90
14119;DHT22;7138;49.246;9.100;2022-10-31T10:28:16;15.70;99.90
14119;DHT22;7138;49.246;9.100;2022-10-31T10:30:48;15.40;99.90
14119;DHT22;7138;49.246;9.100;2022-10-31T10:33:22;15.60;99.90
14119;DHT22;7138;49.246;9.100;2022-10-31T10:35:57;15.90;99.90
14119;DHT22;7138;49.246;9.100;2022-10-31T10:38:28;15.90;99.90
14119;DHT22;7138;49.246;9.100;2022-10-31T10:41:02;15.80;99.90
14119;DHT22;7138;49.246;9.100;2022-10-31T10:43:34;16.00;99.90
14119;DHT22;7138;49.246;9.100;2022-10-31T10:46:16;16.20;99.90
14119;DHT22;7138;49.246;9.100;2022-10-31T10:49:17;16.40;99.90
14119;DHT22;7138;49.246;9.100;2022-10-31T10:51:46;16.30;99.90
14119;DHT22;7138;49.246;9.100;2022-10-31T10:54:39;16.30;99.90
14119;DHT22;7138;49.246;9.100;2022-10-31T10:57:29;16.10;99.90
14119;DHT22;7138;49.246;9.100;2022-10-31T11:00:15;16.30;99.90
14119;DHT22;7138;49.246;9.100;2022-10-31T11:02:43;16.50;99.90
14119;DHT22;7138;49.246;9.100;2022-10-31T11:05:18;16.50;99.90
14119;DHT22;7138;49.246;9.100;2022-10-31T11:07:55;16.40;99.90
14119;DHT22;7138;49.246;9.100;2022-10-31T11:10:21;16.60;99.90
14119;DHT22;7138;49.246;9.100;2022-10-31T11:13:00;16.70;99.90
14119;DHT22;7138;49.246;9.100;2022-10-31T11:15:32;16.70;99.90
14119;DHT22;7138;49.246;9.100;2022-10-31T11:18:02;16.80;99.90
14119;DHT22;7138;49.246;9.100;2022-10-31T11:20:32;16.80;99.90
14119;DHT22;7138;49.246;9.100;2022-10-31T11:23:17;16.60;99.90
14119;DHT22;7138;49.246;9.100;2022-10-31T11:25:49;16.50;99.90
14119;DHT22;7138;49.246;9.100;2022-10-31T11:28:17;16.50;99.90
14119;DHT22;7138;49.246;9.100;2022-10-31T11:30:45;16.50;99.90
14119;DHT22;7138;49.246;9.100;2022-10-31T11:33:18;16.50;99.90
14119;DHT22;7138;49.246;9.100;2022-10-31T11:35:49;16.70;99.90
14119;DHT22;7138;49.246;9.100;2022-10-31T11:38:19;16.50;99.90
14119;DHT22;7138;49.246;9.100;2022-10-31T11:40:56;16.30;99.90
14119;DHT22;7138;49.246;9.100;2022-10-31T11:43:24;16.30;99.90
14119;DHT22;7138;49.246;9.100;2022-10-31T11:45:50;16.20;99.90
14119;DHT22;7138;49.246;9.100;2022-10-31T11:48:18;16.30;99.90
14119;DHT22;7138;49.246;9.100;2022-10-31T11:50:52;16.40;99.90
14119;DHT22;7138;49.246;9.100;2022-10-31T11:53:26;16.50;99.90
14119;DHT22;7138;49.246;9.100;2022-10-31T11:56:03;16.40;99.90
14119;DHT22;7138;49.246;9.100;2022-10-31T11:58:35;16.50;99.90
14119;DHT22;7138;49.246;9.100;2022-10-31T12:01:01;16.40;99.90
14119;DHT22;7138;49.246;9.100;2022-10-31T12:03:35;16.30;99.90
14119;DHT22;7138;49.246;9.100;2022-10-31T12:06:15;16.40;99.90
14119;DHT22;7138;49.246;9.100;2022-10-31T12:08:46;16.50;99.90
14119;DHT22;7138;49.246;9.100;2022-10-31T12:11:24;16.50;99.90
14119;DHT22;7138;49.246;9.100;2022-10-31T12:14:20;16.50;99.90
14119;DHT22;7138;49.246;9.100;2022-10-31T12:16:57;16.60;99.90
14119;DHT22;7138;49.246;9.100;2022-10-31T12:19:37;16.60;99.90
14119;DHT22;7138;49.246;9.100;2022-10-31T12:22:16;16.40;99.90
14119;DHT22;7138;49.246;9.100;2022-10-31T12:24:59;16.60;99.90
14119;DHT22;7138;49.246;9.100;2022-10-31T12:28:06;16.60;99.90
14119;DHT22;7138;49.246;9.100;2022-10-31T12:30:53;16.60;99.90
14119;DHT22;7138;49.246;9.100;2022-10-31T12:33:41;16.60;99.90
14119;DHT22;7138;49.246;9.100;2022-10-31T12:36:33;16.70;99.90
14119;DHT22;7138;49.246;9.100;2022-10-31T12:39:28;16.80;99.90
14119;DHT22;7138;49.246;9.100;2022-10-31T12:42:09;16.70;99.90
14119;DHT22;7138;49.246;9.100;2022-10-31T12:44:59;16.90;99.90
14119;DHT22;7138;49.246;9.100;2022-10-31T12:47:55;17.00;99.90
14119;DHT22;7138;49.246;9.100;2022-10-31T12:50:41;17.00;99.90
14119;DHT22;7138;49.246;9.100;2022-10-31T12:53:25;17.10;99.90
14119;DHT22;7138;49.246;9.100;2022-10-31T12:56:14;17.00;99.90
14119;DHT22;7138;49.246;9.100;2022-10-31T12:58:59;16.90;99.90
14119;DHT22;7138;49.246;9.100;2022-10-31T13:01:29;16.90;99.90
14119;DHT22;7138;49.246;9.100;2022-10-31T13:04:03;17.00;99.90
14119;DHT22;7138;49.246;9.100;2022-10-31T13:06:42;17.00;99.90
14119;DHT22;7138;49.246;9.100;2022-10-31T13:09:17;16.80;99.90
14119;DHT22;7138;49.246;9.100;2022-10-31T13:11:51;16.60;99.90
14119;DHT22;7138;49.246;9.100;2022-10-31T13:14:25;16.70;99.90
14119;DHT22;7138;49.246;9.100;2022-10-31T13:16:55;16.70;99.90
14119;DHT22;7138;49.246;9.100;2022-10-31T13:19:25;16.80;99.90
14119;DHT22;7138;49.246;9.100;2022-10-31T13:21:58;16.90;99.90
14119;DHT22;7138;49.246;9.100;2022-10-31T13:24:33;16.80;99.90
14119;DHT22;7138;49.246;9.100;2022-10-31T13:27:12;16.80;99.90
14119;DHT22;7138;49.246;9.100;2022-10-31T13:29:49;16.90;99.90
14119;DHT22;7138;49.246;9.100;2022-10-31T13:32:26;17.00;99.90
14119;DHT22;7138;49.246;9.100;2022-10-31T13:34:55;17.00;99.90
14119;DHT22;7138;49.246;9.100;2022-10-31T13:37:29;17.00;99.90
14119;DHT22;7138;49.246;9.100;2022-10-31T13:40:12;17.00;99.90
14119;DHT22;7138;49.246;9.100;2022-10-31T13:42:53;17.00;99.90
14119;DHT22;7138;49.246;9.100;2022-10-31T13:45:25;17.00;99.90
14119;DHT22;7138;49.246;9.100;2022-10-31T13:47:56;16.90;99.90
14119;DHT22;7138;49.246;9.100;2022-10-31T13:50:26;17.10;99.90
14119;DHT22;7138;49.246;9.100;2022-10-31T13:53:13;17.10;99.90
14119;DHT22;7138;49.246;9.100;2022-10-31T13:55:46;17.20;99.90
14119;DHT22;7138;49.246;9.100;2022-10-31T13:58:25;17.30;99.90
14119;DHT22;7138;49.246;9.100;2022-10-31T14:01:11;17.60;99.90
14119;DHT22;7138;49.246;9.100;2022-10-31T14:03:42;17.70;99.90
14119;DHT22;7138;49.246;9.100;2022-10-31T14:06:11;17.70;99.90
14119;DHT22;7138;49.246;9.100;2022-10-31T14:08:40;17.80;99.90
14119;DHT22;7138;49.246;9.100;2022-10-31T14:11:26;17.80;99.90
14119;DHT22;7138;49.246;9.100;2022-10-31T14:13:56;17.80;99.90
14119;DHT22;7138;49.246;9.100;2022-10-31T14:16:27;17.90;99.90
14119;DHT22;7138;49.246;9.100;2022-10-31T14:18:58;18.00;99.90
14119;DHT22;7138;49.246;9.100;2022-10-31T14:21:29;18.10;99.90
14119;DHT22;7138;49.246;9.100;2022-10-31T14:23:57;18.00;99.90
14119;DHT22;7138;49.246;9.100;2022-10-31T14:26:35;17.90;99.90
14119;DHT22;7138;49.246;9.100;2022-10-31T14:29:22;17.90;99.90
14119;DHT22;7138;49.246;9.100;2022-10-31T14:32:01;18.00;99.90
14119;DHT22;7138;49.246;9.100;2022-10-31T14:34:38;17.90;99.90
14119;DHT22;7138;49.246;9.100;2022-10-31T14:37:24;17.70;99.90
14119;DHT22;7138;49.246;9.100;2022-10-31T14:40:18;17.70;99.90
14119;DHT22;7138;49.246;9.100;2022-10-31T14:43:15;17.60;99.90
14119;DHT22;7138;49.246;9.100;2022-10-31T14:45:56;17.50;99.90
14119;DHT22;7138;49.246;9.100;2022-10-31T14:48:55;17.30;99.90
14119;DHT22;7138;49.246;9.100;2022-10-31T14:51:35;17.20;99.90
14119;DHT22;7138;49.246;9.100;2022-10-31T14:54:08;17.10;99.90
14119;DHT22;7138;49.246;9.100;2022-10-31T14:56:48;17.10;99.90
14119;DHT22;7138;49.246;9.100;2022-10-31T14:59:20;17.00;99.90
14119;DHT22;7138;49.246;9.100;2022-10-31T15:01:56;16.90;99.90
14119;DHT22;7138;49.246;9.100;2022-10-31T15:04:26;16.80;99.90
14119;DHT22;7138;49.246;9.100;2022-10-31T15:06:59;16.70;99.90
14119;DHT22;7138;49.246;9.100;2022-10-31T15:09:32;16.60;99.90
14119;DHT22;7138;49.246;9.100;2022-10-31T15:11:59;16.60;99.90
14119;DHT22;7138;49.246;9.100;2022-10-31T15:14:28;16.40;99.90
14119;DHT22;7138;49.246;9.100;2022-10-31T15:16:58;16.40;99.90
14119;DHT22;7138;49.246;9.100;2022-10-31T15:19:29;16.50;99.90
14119;DHT22;7138;49.246;9.100;2022-10-31T15:21:58;16.50;99.90
14119;DHT22;7138;49.246;9.100;2022-10-31T15:24:32;16.50;99.90
14119;DHT22;7138;49.246;9.100;2022-10-31T15:27:00;16.40;99.90
14119;DHT22;7138;49.246;9.100;2022-10-31T15:29:28;16.30;99.90
14119;DHT22;7138;49.246;9.100;2022-10-31T15:31:57;16.30;99.90
14119;DHT22;7138;49.246;9.100;2022-10-31T15:34:28;16.10;99.90
14119;DHT22;7138;49.246;9.100;2022-10-31T15:36:58;16.10;99.90
14119;DHT22;7138;49.246;9.100;2022-10-31T15:39:24;15.90;99.90
14119;DHT22;7138;49.246;9.100;2022-10-31T15:41:52;15.90;99.90
14119;DHT22;7138;49.246;9.100;2022-10-31T15:44:22;15.80;99.90
14119;DHT22;7138;49.246;9.100;2022-10-31T15:46:57;15.80;99.90
14119;DHT22;7138;49.246;9.100;2022-10-31T15:49:32;15.70;99.90
14119;DHT22;7138;49.246;9.100;2022-10-31T15:52:11;15.70;99.90
14119;DHT22;7138;49.246;9.100;2022-10-31T15:54:45;15.60;99.90
14119;DHT22;7138;49.246;9.100;2022-10-31T15:57:13;15.50;99.90
14119;DHT22;7138;49.246;9.100;2022-10-31T15:59:41;15.40;99.90
14119;DHT22;7138;49.246;9.100;2022-10-31T16:02:13;15.40;99.90
14119;DHT22;7138;49.246;9.100;2022-10-31T16:04:54;15.30;99.90
14119;DHT22;7138;49.246;9.100;2022-10-31T16:07:22;15.20;99.90
14119;DHT22;7138;49.246;9.100;2022-10-31T16:09:53;15.10;99.90
14119;DHT22;7138;49.246;9.100;2022-10-31T16:12:21;15.10;99.90
14119;DHT22;7138;49.246;9.100;2022-10-31T16:14:49;14.90;99.90
14119;DHT22;7138;49.246;9.100;2022-10-31T16:17:20;14.80;99.90